Time;durP1;ratioP1;P1;durP2;ratioP2;P2;SDS_P1;SDS_P2;PMS_P1;PMS_P2;Temp;Humidity;BMP_temperature;BMP_pressure;BME280_temperature;BME280_humidity;BME280_pressure;Samples;Min_cycle;Max_cycle;Signal;HPM_P1;HPM_P2
2023/07/11 05:13:23;;;;;;;;;;;;;;;;;;5085359;28;20003;-40
2023/07/11 05:15:49;;;;;;;;;;;;;;;;;;5068533;28;20357;-40
2023/07/11 05:18:15;;;;;;;;;;;;;;;;;;5069029;28;19909;-41
2023/07/11 05:20:41;;;;;;;;;;;;;;;;;;5071208;28;19912;-41
2023/07/11 05:23:08;;;;;;;;;;;;;;;;;;5070567;28;19912;-41
2023/07/11 05:25:34;;;;;;;;;;;;;;;;;;5067672;28;19912;-41
2023/07/11 05:28:06;;;;;;;;;;;;;;;;;;5083380;28;19919;-41
2023/07/11 05:30:32;;;;;;;;;;;;;;;;;;5068156;28;19913;-41
2023/07/11 05:32:58;;;;;;;;;;;;;;;;;;5052112;28;20056;-41
2023/07/11 05:35:24;;;;;;;;;;;;;;;;;;5066350;28;19919;-41
2023/07/11 05:37:50;;;;;;;;;;;;;;;;;;5070399;28;19920;-41
2023/07/11 05:40:16;;;;;;;;;;;;;;;;;;5070454;28;19912;-41
2023/07/11 05:42:42;;;;;;;;;;;;;;;;;;5070572;28;19956;-41
2023/07/11 05:45:08;;;;;;;;;;;;;;;;;;5070038;28;20007;-41
2023/07/11 05:47:34;;;;;;;;;;;;;;;;;;5070128;28;19913;-40
2023/07/11 05:49:59;;;;;;;;;;;;;;;;;;5070136;28;20007;-40
2023/07/11 05:52:25;;;;;;;;;;;;;;;;;;5070064;28;19908;-40
2023/07/11 05:54:51;;;;;;;;;;;;;;;;;;5070196;28;19962;-40
2023/07/11 05:57:17;;;;;;;;;;;;;;;;;;5077004;28;19930;-40
2023/07/11 05:59:43;;;;;;;;;;;;;;;;;;5090412;28;20012;-40
2023/07/11 06:02:09;;;;;;;;;;;;;;;;;;5090393;28;19958;-40
2023/07/11 06:04:35;;;;;;;;;;;;;;;;;;5089970;28;19908;-40
2023/07/11 06:07:01;;;;;;;;;;;;;;;;;;5068114;28;20302;-40
2023/07/11 06:09:27;;;;;;;;;;;;;;;;;;5069561;28;19908;-40
2023/07/11 06:11:53;;;;;;;;;;;;;;;;;;5069550;28;19915;-40
2023/07/11 06:14:20;;;;;;;;;;;;;;;;;;5068528;28;19924;-40
2023/07/11 06:16:46;;;;;;;;;;;;;;;;;;5069919;28;19916;-40
2023/07/11 06:19:12;;;;;;;;;;;;;;;;;;5068687;28;19958;-40
2023/07/11 06:21:38;;;;;;;;;;;;;;;;;;5069607;28;20112;-40
2023/07/11 06:24:04;;;;;;;;;;;;;;;;;;5081712;28;20290;-40
2023/07/11 06:26:30;;;;;;;;;;;;;;;;;;5070794;28;19913;-40
2023/07/11 06:28:56;;;;;;;;;;;;;;;;;;5064741;28;19985;-40
2023/07/11 06:31:22;;;;;;;;;;;;;;;;;;5069792;28;19912;-40
2023/07/11 06:33:50;;;;;;;;;;;;;;;;;;5071129;28;19966;-40
2023/07/11 06:36:16;;;;;;;;;;;;;;;;;;5077004;28;20342;-41
2023/07/11 06:38:41;;;;;;;;;;;;;;;;;;5068630;28;19912;-41
2023/07/11 06:41:08;;;;;;;;;;;;;;;;;;5066397;28;19917;-41
2023/07/11 06:43:34;;;;;;;;;;;;;;;;;;5068401;28;20006;-40
2023/07/11 06:46:00;;;;;;;;;;;;;;;;;;5086095;28;19995;-40
2023/07/11 06:48:26;;;;;;;;;;;;;;;;;;5089030;28;19916;-40
2023/07/11 06:50:52;;;;;;;;;;;;;;;;;;5088716;28;19913;-40
2023/07/11 06:53:18;;;;;;;;;;;;;;;;;;5081073;28;19917;-41
2023/07/11 06:55:45;;;;;;;;;;;;;;;;;;5068212;28;19917;-40
2023/07/11 06:58:12;;;;;;;;;;;;;;;;;;5067867;28;20050;-40
2023/07/11 07:00:38;;;;;;;;;;;;;;;;;;5068191;28;19923;-41
2023/07/11 07:03:04;;;;;;;;;;;;;;;;;;5071892;28;19916;-40
2023/07/11 07:05:30;;;;;;;;;;;;;;;;;;5088604;28;20374;-41
2023/07/11 07:07:56;;;;;;;;;;;;;;;;;;5084414;28;19916;-41
2023/07/11 07:10:21;;;;;;;;;;;;;;;;;;5068229;28;19916;-41
2023/07/11 07:12:47;;;;;;;;;;;;;;;;;;5068487;28;19916;-40
2023/07/11 07:15:15;;;;;;;;;;;;;;;;;;5085849;28;20210;-41
2023/07/11 07:17:41;;;;;;;;;;;;;;;;;;5086398;28;19912;-41
2023/07/11 07:20:07;;;;;;;;;;;;;;;;;;5087772;28;19999;-41
2023/07/11 07:22:34;;;;;;;;;;;;;;;;;;5087925;28;19912;-40
2023/07/11 07:25:00;;;;;;;;;;;;;;;;;;5087916;28;20455;-41
2023/07/11 07:27:25;;;;;;;;;;;;;;;;;;5088350;28;19908;-41
2023/07/11 07:29:52;;;;;;;;;;;;;;;;;;5087921;28;19916;-41
2023/07/11 07:32:19;;;;;;;;;;;;;;;;;;5087698;28;19912;-41
2023/07/11 07:34:45;;;;;;;;;;;;;;;;;;5087661;28;19981;-41
2023/07/11 07:37:11;;;;;;;;;;;;;;;;;;5087129;28;19912;-41
2023/07/11 07:39:39;;;;;;;;;;;;;;;;;;5088396;28;19916;-41
2023/07/11 07:42:05;;;;;;;;;;;;;;;;;;5084200;28;20568;-41
2023/07/11 07:44:30;;;;;;;;;;;;;;;;;;5088934;28;19912;-41
2023/07/11 07:46:56;;;;;;;;;;;;;;;;;;5088792;28;19927;-41
2023/07/11 07:49:22;;;;;;;;;;;;;;;;;;5087668;28;19923;-41
2023/07/11 07:51:48;;;;;;;;;;;;;;;;;;5088954;28;19980;-41
2023/07/11 07:54:14;;;;;;;;;;;;;;;;;;5089305;28;19929;-41
2023/07/11 07:56:40;;;;;;;;;;;;;;;;;;5088594;28;19916;-41
2023/07/11 07:59:06;;;;;;;;;;;;;;;;;;5088061;28;19938;-41
2023/07/11 08:01:32;;;;;;;;;;;;;;;;;;5089111;28;19912;-41
2023/07/11 08:03:58;;;;;;;;;;;;;;;;;;5088881;28;19974;-41
2023/07/11 08:06:24;;;;;;;;;;;;;;;;;;5086996;28;19923;-42
2023/07/11 08:08:50;;;;;;;;;;;;;;;;;;5088296;28;19912;-41
2023/07/11 08:11:16;;;;;;;;;;;;;;;;;;5089159;28;19916;-41
2023/07/11 08:13:41;;;;;;;;;;;;;;;;;;5086272;28;19924;-41
2023/07/11 08:16:07;;;;;;;;;;;;;;;;;;5062549;28;19920;-42
2023/07/11 08:18:33;;;;;;;;;;;;;;;;;;5069524;28;19909;-41
2023/07/11 08:20:59;;;;;;;;;;;;;;;;;;5069543;28;19955;-42
2023/07/11 08:23:25;;;;;;;;;;;;;;;;;;5069718;28;19928;-42
2023/07/11 08:25:51;;;;;;;;;;;;;;;;;;5071336;28;19934;-42
2023/07/11 08:28:17;;;;;;;;;;;;;;;;;;5081311;28;19912;-42
2023/07/11 08:30:43;;;;;;;;;;;;;;;;;;5079778;28;20801;-42
2023/07/11 08:33:08;;;;;;;;;;;;;;;;;;5069630;28;20003;-41
2023/07/11 08:35:34;;;;;;;;;;;;;;;;;;5068344;28;19909;-42
2023/07/11 08:38:00;;;;;;;;;;;;;;;;;;5069253;28;19913;-42
2023/07/11 08:40:27;;;;;;;;;;;;;;;;;;5051654;28;19916;-42
2023/07/11 08:42:53;;;;;;;;;;;;;;;;;;5069377;28;19913;-42
2023/07/11 08:45:19;;;;;;;;;;;;;;;;;;5067868;28;19928;-41
2023/07/11 08:47:45;;;;;;;;;;;;;;;;;;5068877;28;20492;-42
2023/07/11 08:50:11;;;;;;;;;;;;;;;;;;5068727;28;19917;-42
2023/07/11 08:52:37;;;;;;;;;;;;;;;;;;5069399;28;19977;-41
2023/07/11 08:55:03;;;;;;;;;;;;;;;;;;5073194;28;19943;-43
2023/07/11 08:57:29;;;;;;;;;;;;;;;;;;5073365;28;20396;-43
2023/07/11 08:59:55;;;;;;;;;;;;;;;;;;5073443;28;19980;-41
2023/07/11 09:02:21;;;;;;;;;;;;;;;;;;5073481;28;19915;-42
2023/07/11 09:04:47;;;;;;;;;;;;;;;;;;5073927;28;19908;-42
2023/07/11 09:07:12;;;;;;;;;;;;;;;;;;5073408;28;19915;-42
2023/07/11 09:09:38;;;;;;;;;;;;;;;;;;5071391;28;20018;-41
2023/07/11 09:12:04;;;;;;;;;;;;;;;;;;5072768;28;19953;-41
2023/07/11 09:14:30;;;;;;;;;;;;;;;;;;5081610;28;19970;-43
2023/07/11 09:17:01;;;;;;;;;;;;;;;;;;5113807;28;19911;-42
2023/07/11 09:19:27;;;;;;;;;;;;;;;;;;5100356;28;20061;-41
2023/07/11 09:21:52;;;;;;;;;;;;;;;;;;5086769;28;19999;-41
2023/07/11 09:24:19;;;;;;;;;;;;;;;;;;5090693;28;20441;-41
2023/07/11 09:26:45;;;;;;;;;;;;;;;;;;5092254;28;20290;-41
2023/07/11 09:29:11;;;;;;;;;;;;;;;;;;5089859;28;19919;-42
2023/07/11 09:31:36;;;;;;;;;;;;;;;;;;5091297;28;20021;-42
2023/07/11 09:34:05;;;;;;;;;;;;;;;;;;5090176;28;19918;-41
2023/07/11 09:36:31;;;;;;;;;;;;;;;;;;5092222;28;19908;-41
2023/07/11 09:38:57;;;;;;;;;;;;;;;;;;5091956;28;19915;-41
2023/07/11 09:41:23;;;;;;;;;;;;;;;;;;5091099;28;19908;-41
2023/07/11 09:43:49;;;;;;;;;;;;;;;;;;5082913;28;19943;-42
2023/07/11 09:46:15;;;;;;;;;;;;;;;;;;5092823;28;19908;-42
2023/07/11 09:48:41;;;;;;;;;;;;;;;;;;5090239;28;19958;-41
2023/07/11 09:51:06;;;;;;;;;;;;;;;;;;5091961;28;20007;-42
2023/07/11 09:53:32;;;;;;;;;;;;;;;;;;5090748;28;20438;-42
2023/07/11 09:55:58;;;;;;;;;;;;;;;;;;5087854;28;19920;-41
2023/07/11 09:58:24;;;;;;;;;;;;;;;;;;5071578;28;19951;-41
2023/07/11 10:00:51;;;;;;;;;;;;;;;;;;5083742;28;19948;-43
2023/07/11 10:03:17;;;;;;;;;;;;;;;;;;5087606;28;19912;-42
2023/07/11 10:05:43;;;;;;;;;;;;;;;;;;5064553;28;20440;-41
2023/07/11 10:08:09;;;;;;;;;;;;;;;;;;5085233;28;20190;-41
2023/07/11 10:10:35;;;;;;;;;;;;;;;;;;5081598;28;19990;-41
2023/07/11 10:13:00;;;;;;;;;;;;;;;;;;5088635;28;19918;-41
2023/07/11 10:15:28;;;;;;;;;;;;;;;;;;5086189;28;20348;-41
2023/07/11 10:17:54;;;;;;;;;;;;;;;;;;5066809;28;19919;-41
2023/07/11 10:20:20;;;;;;;;;;;;;;;;;;5069759;28;19912;-41
2023/07/11 10:22:46;;;;;;;;;;;;;;;;;;5083861;28;20019;-41
2023/07/11 10:25:12;;;;;;;;;;;;;;;;;;5088740;28;20454;-41
2023/07/11 10:27:37;;;;;;;;;;;;;;;;;;5086543;28;19961;-43
2023/07/11 10:30:04;;;;;;;;;;;;;;;;;;5064018;28;19923;-41
2023/07/11 10:32:29;;;;;;;;;;;;;;;;;;5084886;28;20398;-42
2023/07/11 10:34:56;;;;;;;;;;;;;;;;;;5081388;28;19957;-41
2023/07/11 10:37:22;;;;;;;;;;;;;;;;;;5085485;28;19912;-41
2023/07/11 10:39:48;;;;;;;;;;;;;;;;;;5082748;28;19919;-41
2023/07/11 10:42:14;;;;;;;;;;;;;;;;;;5080594;28;19916;-42
2023/07/11 10:44:40;;;;;;;;;;;;;;;;;;5079034;28;19924;-41
2023/07/11 10:47:08;;;;;;;;;;;;;;;;;;5082309;28;20022;-42
2023/07/11 10:49:34;;;;;;;;;;;;;;;;;;5081830;28;19935;-42
2023/07/11 10:52:01;;;;;;;;;;;;;;;;;;5082345;28;19920;-41
2023/07/11 10:54:26;;;;;;;;;;;;;;;;;;5080542;28;19923;-42
2023/07/11 10:56:52;;;;;;;;;;;;;;;;;;5089583;28;19928;-41
2023/07/11 10:59:20;;;;;;;;;;;;;;;;;;5075226;28;19913;-43
2023/07/11 11:01:46;;;;;;;;;;;;;;;;;;5076753;28;19934;-43
2023/07/11 11:04:12;;;;;;;;;;;;;;;;;;5086659;28;19912;-43
2023/07/11 11:06:38;;;;;;;;;;;;;;;;;;5088839;28;19915;-44
2023/07/11 11:09:06;;;;;;;;;;;;;;;;;;5088639;28;19912;-43
2023/07/11 11:11:32;;;;;;;;;;;;;;;;;;5063750;28;19916;-43
2023/07/11 11:13:58;;;;;;;;;;;;;;;;;;5082580;28;19923;-40
2023/07/11 11:16:24;;;;;;;;;;;;;;;;;;5085886;28;20448;-40
2023/07/11 11:18:50;;;;;;;;;;;;;;;;;;5086562;28;19919;-40
2023/07/11 11:21:16;;;;;;;;;;;;;;;;;;5085756;28;19969;-40
2023/07/11 11:23:42;;;;;;;;;;;;;;;;;;5066271;28;20326;-40
2023/07/11 11:26:08;;;;;;;;;;;;;;;;;;5083544;28;20435;-41
2023/07/11 11:28:34;;;;;;;;;;;;;;;;;;5085908;28;19916;-40
2023/07/11 11:31:00;;;;;;;;;;;;;;;;;;5085265;28;20021;-40
2023/07/11 11:33:26;;;;;;;;;;;;;;;;;;5087796;28;20140;-41
2023/07/11 11:35:51;;;;;;;;;;;;;;;;;;5087726;28;20324;-41
2023/07/11 11:38:17;;;;;;;;;;;;;;;;;;5056459;28;19927;-41
2023/07/11 11:40:43;;;;;;;;;;;;;;;;;;5083815;28;19919;-40
2023/07/11 11:43:09;;;;;;;;;;;;;;;;;;5083990;28;19916;-41
2023/07/11 11:45:35;;;;;;;;;;;;;;;;;;5079924;28;19921;-40
2023/07/11 11:48:01;;;;;;;;;;;;;;;;;;5080671;28;20007;-40
2023/07/11 11:50:27;;;;;;;;;;;;;;;;;;5074260;28;19939;-40
2023/07/11 11:52:53;;;;;;;;;;;;;;;;;;5081420;28;20375;-41
2023/07/11 11:55:19;;;;;;;;;;;;;;;;;;5064726;28;19919;-41
2023/07/11 11:57:44;;;;;;;;;;;;;;;;;;5086440;28;19982;-41
2023/07/11 12:00:10;;;;;;;;;;;;;;;;;;5086819;28;19914;-41
2023/07/11 12:02:36;;;;;;;;;;;;;;;;;;5086443;28;19923;-40
2023/07/11 12:05:02;;;;;;;;;;;;;;;;;;5086789;28;20355;-40
2023/07/11 12:07:28;;;;;;;;;;;;;;;;;;5087258;28;19957;-41
2023/07/11 12:09:56;;;;;;;;;;;;;;;;;;5085499;28;19912;-41
2023/07/11 12:12:22;;;;;;;;;;;;;;;;;;5079177;28;19964;-41
2023/07/11 12:14:48;;;;;;;;;;;;;;;;;;5087150;28;19959;-41
2023/07/11 12:17:13;;;;;;;;;;;;;;;;;;5086877;28;20535;-41
2023/07/11 12:19:41;;;;;;;;;;;;;;;;;;5086666;28;19912;-41
2023/07/11 12:22:07;;;;;;;;;;;;;;;;;;5086442;28;20366;-41
2023/07/11 12:24:34;;;;;;;;;;;;;;;;;;5086753;28;19908;-42
2023/07/11 12:27:00;;;;;;;;;;;;;;;;;;5086767;28;20420;-41
2023/07/11 12:29:26;;;;;;;;;;;;;;;;;;5064866;28;19916;-41
2023/07/11 12:31:52;;;;;;;;;;;;;;;;;;5066241;28;19916;-41
2023/07/11 12:34:17;;;;;;;;;;;;;;;;;;5067910;28;20013;-42
2023/07/11 12:36:43;;;;;;;;;;;;;;;;;;5077406;28;20286;-42
2023/07/11 12:39:09;;;;;;;;;;;;;;;;;;5068780;28;19916;-42
2023/07/11 12:41:35;;;;;;;;;;;;;;;;;;5066496;28;19913;-42
2023/07/11 12:44:02;;;;;;;;;;;;;;;;;;5067757;28;19908;-41
2023/07/11 12:46:31;;;;;;;;;;;;;;;;;;5067189;28;19915;-41
2023/07/11 12:48:57;;;;;;;;;;;;;;;;;;5068085;28;19940;-42
2023/07/11 12:51:23;;;;;;;;;;;;;;;;;;5067340;28;20005;-43
2023/07/11 12:53:49;;;;;;;;;;;;;;;;;;5067884;28;20316;-41
2023/07/11 12:56:15;;;;;;;;;;;;;;;;;;5067959;28;19912;-42
2023/07/11 12:58:41;;;;;;;;;;;;;;;;;;5056279;28;20341;-41
2023/07/11 13:01:07;;;;;;;;;;;;;;;;;;5067150;28;19908;-41
2023/07/11 13:03:32;;;;;;;;;;;;;;;;;;5067298;28;19933;-42
2023/07/11 13:05:58;;;;;;;;;;;;;;;;;;5067035;28;19956;-42
2023/07/11 13:08:24;;;;;;;;;;;;;;;;;;5067388;28;19909;-43
2023/07/11 13:10:50;;;;;;;;;;;;;;;;;;5066766;28;19913;-43
2023/07/11 13:13:16;;;;;;;;;;;;;;;;;;5067958;28;19958;-43
2023/07/11 13:15:42;;;;;;;;;;;;;;;;;;5047533;28;19970;-41
2023/07/11 13:18:08;;;;;;;;;;;;;;;;;;5029303;28;19916;-42
2023/07/11 13:20:34;;;;;;;;;;;;;;;;;;5028815;28;19916;-41
2023/07/11 13:22:59;;;;;;;;;;;;;;;;;;5047152;28;20122;-41
2023/07/11 13:25:27;;;;;;;;;;;;;;;;;;5046931;28;19920;-42
2023/07/11 13:27:52;;;;;;;;;;;;;;;;;;5047318;28;19916;-42
2023/07/11 13:30:18;;;;;;;;;;;;;;;;;;5047400;28;19913;-42
2023/07/11 13:32:44;;;;;;;;;;;;;;;;;;5047696;28;20376;-42
2023/07/11 13:35:10;;;;;;;;;;;;;;;;;;5047025;28;19909;-42
2023/07/11 13:37:36;;;;;;;;;;;;;;;;;;5046841;28;19916;-41
2023/07/11 13:40:02;;;;;;;;;;;;;;;;;;5048560;28;19952;-42
2023/07/11 13:42:28;;;;;;;;;;;;;;;;;;5050625;28;20299;-43
2023/07/11 13:44:54;;;;;;;;;;;;;;;;;;5050809;28;19915;-42
2023/07/11 13:47:20;;;;;;;;;;;;;;;;;;5050286;28;19909;-41
2023/07/11 13:49:45;;;;;;;;;;;;;;;;;;5051219;28;19941;-43
2023/07/11 13:52:11;;;;;;;;;;;;;;;;;;5050335;28;20011;-42
2023/07/11 13:54:37;;;;;;;;;;;;;;;;;;5050315;28;20383;-43
2023/07/11 13:57:03;;;;;;;;;;;;;;;;;;5050160;28;19909;-41
2023/07/11 13:59:29;;;;;;;;;;;;;;;;;;5050385;28;20004;-42
2023/07/11 14:01:55;;;;;;;;;;;;;;;;;;5063975;28;19916;-41
2023/07/11 14:04:21;;;;;;;;;;;;;;;;;;5070389;28;19973;-42
2023/07/11 14:06:47;;;;;;;;;;;;;;;;;;5070439;28;20275;-41
2023/07/11 14:09:13;;;;;;;;;;;;;;;;;;5070451;28;19908;-42
2023/07/11 14:11:39;;;;;;;;;;;;;;;;;;5069520;28;20532;-41
2023/07/11 14:14:05;;;;;;;;;;;;;;;;;;5076276;28;20208;-41
2023/07/11 14:16:31;;;;;;;;;;;;;;;;;;5090129;28;20408;-41
2023/07/11 14:18:57;;;;;;;;;;;;;;;;;;5090360;28;19908;-42
2023/07/11 14:21:23;;;;;;;;;;;;;;;;;;5090191;28;19912;-42
2023/07/11 14:23:49;;;;;;;;;;;;;;;;;;5090530;28;19991;-41
2023/07/11 14:26:14;;;;;;;;;;;;;;;;;;5090771;28;19931;-41
2023/07/11 14:28:40;;;;;;;;;;;;;;;;;;5090598;28;19915;-44
2023/07/11 14:31:06;;;;;;;;;;;;;;;;;;5089803;28;19963;-42
2023/07/11 14:33:32;;;;;;;;;;;;;;;;;;5090109;28;19908;-41
2023/07/11 14:35:58;;;;;;;;;;;;;;;;;;5089938;28;19904;-42
2023/07/11 14:38:24;;;;;;;;;;;;;;;;;;5089826;28;20007;-42
2023/07/11 14:40:50;;;;;;;;;;;;;;;;;;5089789;28;20313;-42
2023/07/11 14:43:16;;;;;;;;;;;;;;;;;;5090425;28;19912;-44
2023/07/11 14:45:42;;;;;;;;;;;;;;;;;;5089765;28;19904;-44
2023/07/11 14:48:08;;;;;;;;;;;;;;;;;;5089755;28;19912;-43
2023/07/11 14:50:33;;;;;;;;;;;;;;;;;;5087026;28;19916;-42
2023/07/11 14:52:59;;;;;;;;;;;;;;;;;;5089278;28;19908;-43
2023/07/11 14:55:25;;;;;;;;;;;;;;;;;;5073850;28;19919;-44
2023/07/11 14:57:51;;;;;;;;;;;;;;;;;;5069198;28;19935;-42
2023/07/11 15:00:17;;;;;;;;;;;;;;;;;;5069799;28;19908;-43
2023/07/11 15:02:43;;;;;;;;;;;;;;;;;;5070378;28;20070;-43
2023/07/11 15:05:09;;;;;;;;;;;;;;;;;;5069386;28;19908;-43
2023/07/11 15:07:35;;;;;;;;;;;;;;;;;;5068637;28;19915;-43
2023/07/11 15:10:05;;;;;;;;;;;;;;;;;;5072743;28;19969;-42
2023/07/11 15:12:31;;;;;;;;;;;;;;;;;;5082702;28;19992;-44
2023/07/11 15:14:56;;;;;;;;;;;;;;;;;;5089037;28;19963;-42
2023/07/11 15:17:22;;;;;;;;;;;;;;;;;;5088911;28;20378;-42
2023/07/11 15:19:48;;;;;;;;;;;;;;;;;;5089502;28;19916;-42
2023/07/11 15:22:14;;;;;;;;;;;;;;;;;;5089143;28;19914;-43
2023/07/11 15:24:40;;;;;;;;;;;;;;;;;;5084955;28;21814;-43
2023/07/11 15:27:06;;;;;;;;;;;;;;;;;;5087189;28;19912;-42
2023/07/11 15:29:32;;;;;;;;;;;;;;;;;;5075968;28;20378;-43
2023/07/11 15:31:58;;;;;;;;;;;;;;;;;;5068324;28;19995;-44
2023/07/11 15:34:24;;;;;;;;;;;;;;;;;;5068692;28;19915;-43
2023/07/11 15:36:50;;;;;;;;;;;;;;;;;;5067508;28;19921;-42
2023/07/11 15:39:15;;;;;;;;;;;;;;;;;;5085301;28;19908;-43
2023/07/11 15:41:41;;;;;;;;;;;;;;;;;;5087298;28;19912;-43
2023/07/11 15:44:07;;;;;;;;;;;;;;;;;;5085038;28;19974;-43
2023/07/11 15:46:33;;;;;;;;;;;;;;;;;;5088120;28;19931;-43
2023/07/11 15:49:01;;;;;;;;;;;;;;;;;;5087410;28;20359;-43
2023/07/11 15:51:27;;;;;;;;;;;;;;;;;;5087074;28;19934;-43
2023/07/11 15:53:53;;;;;;;;;;;;;;;;;;5087291;28;20426;-43
2023/07/11 15:56:19;;;;;;;;;;;;;;;;;;5087115;28;19915;-42
2023/07/11 15:58:44;;;;;;;;;;;;;;;;;;5086860;28;19908;-44
2023/07/11 16:01:10;;;;;;;;;;;;;;;;;;5086889;28;19915;-42
2023/07/11 16:03:36;;;;;;;;;;;;;;;;;;5078782;28;20407;-42
2023/07/11 16:06:02;;;;;;;;;;;;;;;;;;5068544;28;19912;-43
2023/07/11 16:08:28;;;;;;;;;;;;;;;;;;5082801;28;20000;-42
2023/07/11 16:10:54;;;;;;;;;;;;;;;;;;5079423;28;19916;-42
2023/07/11 16:13:20;;;;;;;;;;;;;;;;;;5086534;28;19911;-42
2023/07/11 16:15:46;;;;;;;;;;;;;;;;;;5062649;28;19927;-45
2023/07/11 16:18:12;;;;;;;;;;;;;;;;;;5062597;28;19917;-42
2023/07/11 16:20:37;;;;;;;;;;;;;;;;;;5057705;28;20437;-42
2023/07/11 16:23:03;;;;;;;;;;;;;;;;;;5049647;28;19916;-42
2023/07/11 16:25:30;;;;;;;;;;;;;;;;;;5048793;28;19915;-41
2023/07/11 16:27:56;;;;;;;;;;;;;;;;;;5054487;28;19920;-42
2023/07/11 16:30:22;;;;;;;;;;;;;;;;;;5067475;28;19928;-42
2023/07/11 16:32:48;;;;;;;;;;;;;;;;;;5067636;28;19909;-43
2023/07/11 16:35:14;;;;;;;;;;;;;;;;;;5067508;28;19908;-42
2023/07/11 16:37:40;;;;;;;;;;;;;;;;;;5067519;28;19999;-43
2023/07/11 16:40:06;;;;;;;;;;;;;;;;;;5066574;28;19916;-43
2023/07/11 16:42:32;;;;;;;;;;;;;;;;;;5067687;28;19909;-43
2023/07/11 16:44:58;;;;;;;;;;;;;;;;;;5067615;28;19909;-42
2023/07/11 16:47:23;;;;;;;;;;;;;;;;;;5067425;28;19908;-43
2023/07/11 16:49:49;;;;;;;;;;;;;;;;;;5067326;28;20003;-42
2023/07/11 16:52:15;;;;;;;;;;;;;;;;;;5067201;28;20422;-43
2023/07/11 16:54:41;;;;;;;;;;;;;;;;;;5047473;28;19916;-43
2023/07/11 16:57:07;;;;;;;;;;;;;;;;;;5048010;28;20528;-43
2023/07/11 16:59:33;;;;;;;;;;;;;;;;;;5052101;28;19912;-43
2023/07/11 17:01:59;;;;;;;;;;;;;;;;;;5067587;28;19912;-42
2023/07/11 17:04:25;;;;;;;;;;;;;;;;;;5065378;28;19958;-43
2023/07/11 17:06:51;;;;;;;;;;;;;;;;;;5064922;28;19912;-42
2023/07/11 17:09:17;;;;;;;;;;;;;;;;;;5065827;28;19913;-43
2023/07/11 17:11:43;;;;;;;;;;;;;;;;;;5064227;28;19973;-42
2023/07/11 17:14:09;;;;;;;;;;;;;;;;;;5076974;28;19916;-42
2023/07/11 17:16:34;;;;;;;;;;;;;;;;;;5072074;28;19931;-42
2023/07/11 17:19:01;;;;;;;;;;;;;;;;;;5082429;28;20378;-42
2023/07/11 17:21:27;;;;;;;;;;;;;;;;;;5089431;28;19913;-42
2023/07/11 17:23:52;;;;;;;;;;;;;;;;;;5075406;28;20308;-43
2023/07/11 17:26:18;;;;;;;;;;;;;;;;;;5070905;28;19913;-43
2023/07/11 17:28:44;;;;;;;;;;;;;;;;;;5070537;28;20012;-44
2023/07/11 17:31:10;;;;;;;;;;;;;;;;;;5071955;28;19917;-42
2023/07/11 17:33:36;;;;;;;;;;;;;;;;;;5071777;28;20367;-42
2023/07/11 17:36:02;;;;;;;;;;;;;;;;;;5070954;28;19909;-42
2023/07/11 17:38:28;;;;;;;;;;;;;;;;;;5070699;28;20286;-43
2023/07/11 17:40:54;;;;;;;;;;;;;;;;;;5070850;28;20007;-43
2023/07/11 17:43:19;;;;;;;;;;;;;;;;;;5071361;28;20378;-42
2023/07/11 17:45:45;;;;;;;;;;;;;;;;;;5070966;28;19908;-42
2023/07/11 17:48:11;;;;;;;;;;;;;;;;;;5069976;28;19912;-43
2023/07/11 17:50:37;;;;;;;;;;;;;;;;;;5080444;28;19924;-43
2023/07/11 17:53:03;;;;;;;;;;;;;;;;;;5075843;28;19912;-42
2023/07/11 17:55:29;;;;;;;;;;;;;;;;;;5071908;28;19908;-41
2023/07/11 17:57:55;;;;;;;;;;;;;;;;;;5069543;28;20003;-41
2023/07/11 18:00:21;;;;;;;;;;;;;;;;;;5079352;28;20355;-41
2023/07/11 18:02:47;;;;;;;;;;;;;;;;;;5090650;28;20520;-41
2023/07/11 18:05:13;;;;;;;;;;;;;;;;;;5074321;28;19913;-42
2023/07/11 18:07:40;;;;;;;;;;;;;;;;;;5082356;28;19914;-40
2023/07/11 18:10:06;;;;;;;;;;;;;;;;;;5068283;28;19917;-40
2023/07/11 18:12:33;;;;;;;;;;;;;;;;;;5068419;28;20295;-40
2023/07/11 18:14:59;;;;;;;;;;;;;;;;;;5066356;28;20301;-41
2023/07/11 18:17:24;;;;;;;;;;;;;;;;;;5065353;28;20003;-41
2023/07/11 18:19:51;;;;;;;;;;;;;;;;;;5068275;28;19913;-42
2023/07/11 18:22:18;;;;;;;;;;;;;;;;;;5069067;28;20277;-41
2023/07/11 18:24:44;;;;;;;;;;;;;;;;;;5057989;28;19920;-41
2023/07/11 18:27:09;;;;;;;;;;;;;;;;;;5069496;28;19909;-41
2023/07/11 18:29:35;;;;;;;;;;;;;;;;;;5058458;28;19992;-41
2023/07/11 18:32:01;;;;;;;;;;;;;;;;;;5065539;28;19916;-41
2023/07/11 18:34:28;;;;;;;;;;;;;;;;;;5062269;28;20003;-41
2023/07/11 18:36:54;;;;;;;;;;;;;;;;;;5064851;28;20007;-41
2023/07/11 18:39:20;;;;;;;;;;;;;;;;;;5068276;28;19912;-41
2023/07/11 18:41:45;;;;;;;;;;;;;;;;;;5047885;28;19917;-41
2023/07/11 18:44:11;;;;;;;;;;;;;;;;;;5045637;28;19912;-41
2023/07/11 18:46:37;;;;;;;;;;;;;;;;;;5049551;28;19913;-40
2023/07/11 18:49:03;;;;;;;;;;;;;;;;;;5068931;28;19913;-48
2023/07/11 18:51:29;;;;;;;;;;;;;;;;;;5065311;28;19940;-41
2023/07/11 18:53:55;;;;;;;;;;;;;;;;;;5066756;28;19920;-40
2023/07/11 18:56:21;;;;;;;;;;;;;;;;;;5067945;28;20477;-41
2023/07/11 18:58:47;;;;;;;;;;;;;;;;;;5067836;28;19919;-41
2023/07/11 19:01:13;;;;;;;;;;;;;;;;;;5050223;28;20379;-40
2023/07/11 19:03:38;;;;;;;;;;;;;;;;;;5066049;28;19912;-40
2023/07/11 19:06:05;;;;;;;;;;;;;;;;;;5047629;28;19920;-40
2023/07/11 19:08:31;;;;;;;;;;;;;;;;;;5067824;28;19917;-41
2023/07/11 19:10:57;;;;;;;;;;;;;;;;;;5050960;28;19912;-41
2023/07/11 19:13:22;;;;;;;;;;;;;;;;;;5067769;28;19912;-40
2023/07/11 19:15:50;;;;;;;;;;;;;;;;;;5090059;28;19912;-40
2023/07/11 19:18:16;;;;;;;;;;;;;;;;;;5083723;28;19923;-40
2023/07/11 19:20:42;;;;;;;;;;;;;;;;;;5083378;28;19912;-40
2023/07/11 19:23:08;;;;;;;;;;;;;;;;;;5082301;28;20398;-40
2023/07/11 19:25:34;;;;;;;;;;;;;;;;;;5081561;28;19912;-40
2023/07/11 19:28:02;;;;;;;;;;;;;;;;;;5087795;28;19915;-40
2023/07/11 19:30:28;;;;;;;;;;;;;;;;;;5084417;28;20069;-40
2023/07/11 19:32:54;;;;;;;;;;;;;;;;;;5084159;28;20470;-40
2023/07/11 19:35:20;;;;;;;;;;;;;;;;;;5083757;28;20275;-41
2023/07/11 19:37:46;;;;;;;;;;;;;;;;;;5086292;28;19916;-40
2023/07/11 19:40:12;;;;;;;;;;;;;;;;;;5085395;28;20078;-40
2023/07/11 19:42:38;;;;;;;;;;;;;;;;;;5085641;28;19935;-40
2023/07/11 19:45:04;;;;;;;;;;;;;;;;;;5072000;28;20175;-40
2023/07/11 19:47:30;;;;;;;;;;;;;;;;;;5085166;28;19912;-40
2023/07/11 19:49:55;;;;;;;;;;;;;;;;;;5086099;28;20417;-40
2023/07/11 19:52:21;;;;;;;;;;;;;;;;;;5086608;28;19957;-40
2023/07/11 19:54:47;;;;;;;;;;;;;;;;;;5083946;28;19947;-40
2023/07/11 19:57:13;;;;;;;;;;;;;;;;;;5084791;28;19958;-40
2023/07/11 19:59:39;;;;;;;;;;;;;;;;;;5066542;28;19916;-40
2023/07/11 20:02:05;;;;;;;;;;;;;;;;;;5085529;28;20495;-41
2023/07/11 20:04:31;;;;;;;;;;;;;;;;;;5085368;28;19912;-41
2023/07/11 20:06:57;;;;;;;;;;;;;;;;;;5087003;28;19981;-40
2023/07/11 20:09:23;;;;;;;;;;;;;;;;;;5085350;28;19912;-40
2023/07/11 20:11:48;;;;;;;;;;;;;;;;;;5081342;28;20414;-40
2023/07/11 20:14:14;;;;;;;;;;;;;;;;;;5079176;28;19966;-40
2023/07/11 20:16:40;;;;;;;;;;;;;;;;;;5065279;28;19913;-40
2023/07/11 20:19:06;;;;;;;;;;;;;;;;;;5068805;28;20310;-40
2023/07/11 20:21:32;;;;;;;;;;;;;;;;;;5085737;28;19999;-40
2023/07/11 20:24:03;;;;;;;;;;;;;;;;;;5070302;28;20403;-40
2023/07/11 20:26:29;;;;;;;;;;;;;;;;;;5075052;28;20463;-40
2023/07/11 20:28:56;;;;;;;;;;;;;;;;;;5071088;28;19952;-40
2023/07/11 20:31:22;;;;;;;;;;;;;;;;;;5079591;28;19916;-41
2023/07/11 20:33:49;;;;;;;;;;;;;;;;;;5064315;28;19913;-40
2023/07/11 20:36:15;;;;;;;;;;;;;;;;;;5065052;28;19913;-40
2023/07/11 20:38:41;;;;;;;;;;;;;;;;;;5071758;28;20008;-40
2023/07/11 20:41:07;;;;;;;;;;;;;;;;;;5069714;28;19999;-40
2023/07/11 20:43:33;;;;;;;;;;;;;;;;;;5074439;28;19959;-40
2023/07/11 20:45:59;;;;;;;;;;;;;;;;;;5065137;28;19920;-40
2023/07/11 20:48:25;;;;;;;;;;;;;;;;;;5048256;28;20783;-40
2023/07/11 20:50:50;;;;;;;;;;;;;;;;;;5066387;28;20334;-40
2023/07/11 20:53:16;;;;;;;;;;;;;;;;;;5065702;28;19940;-40
2023/07/11 20:55:46;;;;;;;;;;;;;;;;;;5066419;28;19908;-40
2023/07/11 20:58:11;;;;;;;;;;;;;;;;;;5083783;28;20270;-40
2023/07/11 21:00:38;;;;;;;;;;;;;;;;;;5085920;28;20026;-40
2023/07/11 21:03:04;;;;;;;;;;;;;;;;;;5081729;28;19912;-40
2023/07/11 21:05:30;;;;;;;;;;;;;;;;;;5067031;28;19908;-40
2023/07/11 21:07:56;;;;;;;;;;;;;;;;;;5066431;28;19912;-41
2023/07/11 21:10:22;;;;;;;;;;;;;;;;;;5066011;28;20015;-40
2023/07/11 21:12:48;;;;;;;;;;;;;;;;;;5066434;28;20263;-40
2023/07/11 21:15:13;;;;;;;;;;;;;;;;;;5081438;28;19916;-40
2023/07/11 21:17:40;;;;;;;;;;;;;;;;;;5085792;28;19913;-40
2023/07/11 21:20:06;;;;;;;;;;;;;;;;;;5067893;28;19909;-40
2023/07/11 21:22:31;;;;;;;;;;;;;;;;;;5087044;28;20400;-40
2023/07/11 21:24:57;;;;;;;;;;;;;;;;;;5086175;28;19998;-40
2023/07/11 21:27:23;;;;;;;;;;;;;;;;;;5067729;28;19908;-40
2023/07/11 21:29:49;;;;;;;;;;;;;;;;;;5086111;28;20342;-40
2023/07/11 21:32:15;;;;;;;;;;;;;;;;;;5085925;28;19916;-40
2023/07/11 21:34:41;;;;;;;;;;;;;;;;;;5086601;28;19908;-41
2023/07/11 21:37:07;;;;;;;;;;;;;;;;;;5086022;28;19934;-40
2023/07/11 21:39:33;;;;;;;;;;;;;;;;;;5086655;28;19913;-40
2023/07/11 21:41:59;;;;;;;;;;;;;;;;;;5085744;28;20027;-40
2023/07/11 21:44:25;;;;;;;;;;;;;;;;;;5085501;28;19943;-40
2023/07/11 21:46:50;;;;;;;;;;;;;;;;;;5086316;28;19912;-40
2023/07/11 21:49:16;;;;;;;;;;;;;;;;;;5085696;28;19912;-40